Time;durP1;ratioP1;P1;durP2;ratioP2;P2;SDS_P1;SDS_P2;PMS_P1;PMS_P2;Temp;Humidity;BMP_temperature;BMP_pressure;BME280_temperature;BME280_humidity;BME280_pressure;Samples;Min_cycle;Max_cycle;Signal;HPM_P1;HPM_P2
2024/01/13 01:22:19;;;;;;;1.73;1.13;;;;;;;;;;4997659;23;20059;-82
2024/01/13 01:24:45;;;;;;;1.15;0.70;;;;;;;;;;4951720;28;20076;-82
2024/01/13 01:27:11;;;;;;;2.22;1.38;;;;;;;;;;4971260;28;20505;-82
2024/01/13 01:29:37;;;;;;;2.38;1.33;;;;;;;;;;4966677;28;20049;-82
2024/01/13 01:32:03;;;;;;;2.25;1.13;;;;;;;;;;4951982;28;20032;-82
2024/01/13 01:34:29;;;;;;;2.15;1.30;;;;;;;;;;4952615;28;20426;-82
2024/01/13 01:36:55;;;;;;;2.72;1.40;;;;;;;;;;4954987;28;20046;-82
2024/01/13 01:39:21;;;;;;;2.25;1.33;;;;;;;;;;4972202;28;20043;-82
2024/01/13 01:41:47;;;;;;;1.85;1.08;;;;;;;;;;4966449;28;20050;-81
2024/01/13 01:44:13;;;;;;;2.55;1.25;;;;;;;;;;4954332;28;20581;-82
2024/01/13 01:46:40;;;;;;;1.90;1.15;;;;;;;;;;4948734;28;20070;-82
2024/01/13 01:49:06;;;;;;;1.77;1.23;;;;;;;;;;4988142;28;20039;-82
2024/01/13 01:51:33;;;;;;;2.28;1.50;;;;;;;;;;4968111;28;20482;-82
2024/01/13 01:53:59;;;;;;;3.40;1.40;;;;;;;;;;4972319;28;20039;-82
2024/01/13 01:56:28;;;;;;;2.33;1.35;;;;;;;;;;4967860;28;20073;-82
2024/01/13 01:58:55;;;;;;;2.08;1.33;;;;;;;;;;4970505;28;20043;-82
2024/01/13 02:01:22;;;;;;;4.63;1.38;;;;;;;;;;4968970;28;20106;-82
2024/01/13 02:03:48;;;;;;;2.90;1.20;;;;;;;;;;4954285;28;20145;-82
2024/01/13 02:06:14;;;;;;;2.95;1.00;;;;;;;;;;4967027;28;20047;-82
2024/01/13 02:08:42;;;;;;;2.28;1.45;;;;;;;;;;4964541;28;20080;-82
2024/01/13 02:11:10;;;;;;;2.47;1.50;;;;;;;;;;5003466;28;20078;-82
2024/01/13 02:13:36;;;;;;;2.65;1.42;;;;;;;;;;4985127;28;20043;-82
2024/01/13 02:16:02;;;;;;;0.73;0.73;;;;;;;;;;4982919;28;20050;-83
2024/01/13 02:18:28;;;;;;;1.58;0.82;;;;;;;;;;4967240;28;20513;-83
2024/01/13 02:20:54;;;;;;;4.28;2.15;;;;;;;;;;4981073;28;20391;-82
2024/01/13 02:23:20;;;;;;;3.15;1.77;;;;;;;;;;4980911;28;20043;-82
2024/01/13 02:25:46;;;;;;;3.75;1.48;;;;;;;;;;4984072;28;20129;-83
2024/01/13 02:28:12;;;;;;;1.13;0.57;;;;;;;;;;4985739;28;20046;-83
2024/01/13 02:30:38;;;;;;;4.55;1.88;;;;;;;;;;4977045;28;20039;-83
2024/01/13 02:33:05;;;;;;;3.78;1.88;;;;;;;;;;4985905;28;20042;-83
2024/01/13 02:35:31;;;;;;;4.45;2.75;;;;;;;;;;4978279;28;20526;-82
2024/01/13 02:37:57;;;;;;;4.57;2.35;;;;;;;;;;4970325;28;20070;-83
2024/01/13 02:40:22;;;;;;;2.38;1.50;;;;;;;;;;4979198;28;20047;-83
2024/01/13 02:42:49;;;;;;;5.13;1.98;;;;;;;;;;4982989;28;20082;-82
2024/01/13 02:45:15;;;;;;;1.33;0.95;;;;;;;;;;4969864;28;20058;-83
2024/01/13 02:47:46;;;;;;;2.95;1.60;;;;;;;;;;4983166;28;20094;-83
2024/01/13 02:50:13;;;;;;;4.38;1.52;;;;;;;;;;4969996;28;20394;-82
2024/01/13 02:52:40;;;;;;;2.90;1.95;;;;;;;;;;4986098;28;20374;-83
2024/01/13 02:55:06;;;;;;;3.05;2.25;;;;;;;;;;4970395;28;20070;-83
2024/01/13 02:57:32;;;;;;;2.95;2.00;;;;;;;;;;4971026;28;20066;-83
2024/01/13 02:59:58;;;;;;;3.42;1.90;;;;;;;;;;4968013;28;20094;-82
2024/01/13 03:02:24;;;;;;;4.20;1.75;;;;;;;;;;4988101;28;20039;-83
2024/01/13 03:04:50;;;;;;;3.55;2.20;;;;;;;;;;4951126;28;20049;-82
2024/01/13 03:07:16;;;;;;;6.18;3.20;;;;;;;;;;4988591;28;20045;-83
2024/01/13 03:09:42;;;;;;;4.50;2.20;;;;;;;;;;4971720;28;20398;-82
2024/01/13 03:12:08;;;;;;;3.35;2.45;;;;;;;;;;4990440;28;20042;-83
2024/01/13 03:14:34;;;;;;;5.15;2.70;;;;;;;;;;4970171;28;20135;-83
2024/01/13 03:17:00;;;;;;;5.57;1.98;;;;;;;;;;4987873;28;20059;-83
2024/01/13 03:19:26;;;;;;;2.47;2.05;;;;;;;;;;4987633;28;20189;-82
2024/01/13 03:21:52;;;;;;;3.33;2.20;;;;;;;;;;4985082;28;20053;-82
2024/01/13 03:24:18;;;;;;;3.00;1.83;;;;;;;;;;4970493;28;20042;-82
2024/01/13 03:26:44;;;;;;;3.00;2.08;;;;;;;;;;4967803;28;20759;-82
2024/01/13 03:29:10;;;;;;;4.75;2.20;;;;;;;;;;4971218;28;20043;-82
2024/01/13 03:31:36;;;;;;;3.75;2.30;;;;;;;;;;4971869;28;20042;-83
2024/01/13 03:34:02;;;;;;;3.83;2.20;;;;;;;;;;4983756;28;20039;-82
2024/01/13 03:36:28;;;;;;;3.35;1.88;;;;;;;;;;4969669;28;20081;-83
2024/01/13 03:38:56;;;;;;;2.95;2.03;;;;;;;;;;4990702;28;20064;-83
2024/01/13 03:41:22;;;;;;;2.25;1.60;;;;;;;;;;4965768;28;20097;-83
2024/01/13 03:43:49;;;;;;;2.63;1.85;;;;;;;;;;4972603;28;20047;-83
2024/01/13 03:46:15;;;;;;;2.83;1.55;;;;;;;;;;4988980;28;20457;-82
2024/01/13 03:48:42;;;;;;;3.03;1.30;;;;;;;;;;4971756;28;20042;-83
2024/01/13 03:51:08;;;;;;;3.45;2.15;;;;;;;;;;4971004;28;20042;-83
2024/01/13 03:53:34;;;;;;;3.17;2.00;;;;;;;;;;4967545;28;20035;-83
2024/01/13 03:56:01;;;;;;;4.55;2.65;;;;;;;;;;4971499;28;20066;-82
2024/01/13 03:58:27;;;;;;;3.35;2.08;;;;;;;;;;4957067;28;20069;-83
2024/01/13 04:00:53;;;;;;;2.72;1.48;;;;;;;;;;4986625;28;20426;-83
2024/01/13 04:03:19;;;;;;;2.92;2.03;;;;;;;;;;4986572;28;20038;-83
2024/01/13 04:05:45;;;;;;;4.93;2.00;;;;;;;;;;4984329;28;20077;-82
2024/01/13 04:08:11;;;;;;;4.18;2.58;;;;;;;;;;4970327;28;20074;-83
2024/01/13 04:10:37;;;;;;;3.60;1.90;;;;;;;;;;4983638;28;20445;-83
2024/01/13 04:13:03;;;;;;;5.20;1.80;;;;;;;;;;4984065;28;20039;-83
2024/01/13 04:15:29;;;;;;;3.45;1.55;;;;;;;;;;4966616;28;20049;-82
2024/01/13 04:17:55;;;;;;;1.65;0.93;;;;;;;;;;4969459;28;20043;-83
2024/01/13 04:20:21;;;;;;;5.50;2.40;;;;;;;;;;4988415;28;20038;-82
2024/01/13 04:22:47;;;;;;;4.55;1.75;;;;;;;;;;5003444;28;20058;-83
2024/01/13 04:25:13;;;;;;;4.15;1.75;;;;;;;;;;5002020;28;20061;-83
2024/01/13 04:27:39;;;;;;;3.45;2.17;;;;;;;;;;5002894;28;20045;-83
2024/01/13 04:30:06;;;;;;;2.58;1.50;;;;;;;;;;5006187;28;20042;-83
2024/01/13 04:32:31;;;;;;;6.70;3.08;;;;;;;;;;4998301;28;20155;-83
2024/01/13 04:34:57;;;;;;;5.35;2.17;;;;;;;;;;5001421;28;20129;-83
2024/01/13 04:37:23;;;;;;;0.80;0.65;;;;;;;;;;5006612;28;20125;-83
2024/01/13 04:39:49;;;;;;;1.00;0.75;;;;;;;;;;5005312;28;20046;-83
2024/01/13 04:42:15;;;;;;;4.28;1.90;;;;;;;;;;5007275;28;20049;-83
2024/01/13 04:44:41;;;;;;;4.32;1.80;;;;;;;;;;5005393;28;20042;-83
2024/01/13 04:47:07;;;;;;;3.78;1.65;;;;;;;;;;5009633;28;20420;-83
2024/01/13 04:49:33;;;;;;;4.70;2.15;;;;;;;;;;5006952;28;20063;-83
2024/01/13 04:51:59;;;;;;;1.50;0.80;;;;;;;;;;5003772;28;20133;-83
2024/01/13 04:54:25;;;;;;;4.03;2.15;;;;;;;;;;5007178;28;20053;-83
2024/01/13 04:56:51;;;;;;;1.10;1.00;;;;;;;;;;5007338;28;20053;-83
2024/01/13 04:59:17;;;;;;;3.00;1.30;;;;;;;;;;5003460;28;20105;-83
2024/01/13 05:01:43;;;;;;;2.15;1.45;;;;;;;;;;5005119;28;20077;-83
2024/01/13 05:04:09;;;;;;;4.78;1.77;;;;;;;;;;5003551;28;20054;-83
2024/01/13 05:06:35;;;;;;;4.97;2.38;;;;;;;;;;4998243;28;20050;-83
2024/01/13 05:09:02;;;;;;;2.90;2.00;;;;;;;;;;4989488;28;20042;-83
2024/01/13 05:11:28;;;;;;;2.22;1.65;;;;;;;;;;5002855;28;20087;-83
2024/01/13 05:13:54;;;;;;;3.55;2.63;;;;;;;;;;5004449;28;20046;-83
2024/01/13 05:16:20;;;;;;;3.78;2.30;;;;;;;;;;5003595;28;20085;-82
2024/01/13 05:18:46;;;;;;;2.63;2.13;;;;;;;;;;5003015;28;20104;-83
2024/01/13 05:21:12;;;;;;;3.95;2.10;;;;;;;;;;4997165;28;20141;-83
2024/01/13 05:23:38;;;;;;;5.03;2.53;;;;;;;;;;4985136;28;20035;-82
2024/01/13 05:26:04;;;;;;;3.55;2.03;;;;;;;;;;4961749;28;20048;-82
2024/01/13 05:28:30;;;;;;;1.50;1.17;;;;;;;;;;4961923;28;20050;-83
2024/01/13 05:30:56;;;;;;;1.42;0.80;;;;;;;;;;4946939;28;20494;-83
2024/01/13 05:33:22;;;;;;;4.70;2.17;;;;;;;;;;4969942;28;20092;-82
2024/01/13 05:35:48;;;;;;;2.42;0.60;;;;;;;;;;4964937;28;20062;-82
2024/01/13 05:38:14;;;;;;;2.15;1.25;;;;;;;;;;4972396;28;20042;-83
2024/01/13 05:40:43;;;;;;;2.03;1.40;;;;;;;;;;4965738;28;20034;-83
2024/01/13 05:43:09;;;;;;;2.28;1.00;;;;;;;;;;4990226;28;20748;-83
2024/01/13 05:45:35;;;;;;;2.47;0.82;;;;;;;;;;4985397;28;20052;-83
2024/01/13 05:48:01;;;;;;;2.35;1.33;;;;;;;;;;4982718;28;20038;-83
2024/01/13 05:50:28;;;;;;;1.27;0.82;;;;;;;;;;4987693;28;20046;-83
2024/01/13 05:52:54;;;;;;;2.80;1.40;;;;;;;;;;4967630;28;20443;-83
2024/01/13 05:55:20;;;;;;;1.58;1.13;;;;;;;;;;4985369;28;20042;-83
2024/01/13 05:57:46;;;;;;;1.90;0.57;;;;;;;;;;4984717;28;20038;-83
2024/01/13 06:00:12;;;;;;;1.40;0.80;;;;;;;;;;4968660;28;20105;-83
2024/01/13 06:02:38;;;;;;;1.10;0.60;;;;;;;;;;4985620;28;20034;-83
2024/01/13 06:05:04;;;;;;;4.70;1.40;;;;;;;;;;4985622;28;20038;-83
2024/01/13 06:07:30;;;;;;;2.83;1.75;;;;;;;;;;4982139;28;20038;-83
2024/01/13 06:09:56;;;;;;;0.63;0.50;;;;;;;;;;4988585;28;20038;-83
2024/01/13 06:12:22;;;;;;;1.50;1.17;;;;;;;;;;4967881;28;20074;-83
2024/01/13 06:14:48;;;;;;;2.00;0.88;;;;;;;;;;4961160;28;20148;-82
2024/01/13 06:17:14;;;;;;;1.85;0.85;;;;;;;;;;4984095;28;20031;-83
2024/01/13 06:19:41;;;;;;;1.67;1.00;;;;;;;;;;4979391;28;20031;-83
2024/01/13 06:22:07;;;;;;;1.33;0.80;;;;;;;;;;4991807;28;20061;-82
2024/01/13 06:24:33;;;;;;;1.27;0.68;;;;;;;;;;5003109;28;20045;-83
2024/01/13 06:26:59;;;;;;;1.55;1.05;;;;;;;;;;4999940;28;20034;-83
2024/01/13 06:29:27;;;;;;;0.28;0.22;;;;;;;;;;5008440;28;20489;-82
2024/01/13 06:31:53;;;;;;;1.73;1.02;;;;;;;;;;5007486;28;20058;-82
2024/01/13 06:34:19;;;;;;;2.60;1.10;;;;;;;;;;5006086;28;20410;-82
2024/01/13 06:36:45;;;;;;;1.98;1.40;;;;;;;;;;5007730;28;20046;-83
2024/01/13 06:39:11;;;;;;;1.33;0.93;;;;;;;;;;5007713;28;20034;-83
2024/01/13 06:41:37;;;;;;;2.17;1.25;;;;;;;;;;5006228;28;20444;-83
2024/01/13 06:44:03;;;;;;;1.27;0.40;;;;;;;;;;4998172;28;20064;-82
2024/01/13 06:46:30;;;;;;;1.58;1.08;;;;;;;;;;4997681;28;20077;-83
2024/01/13 06:48:55;;;;;;;1.13;0.45;;;;;;;;;;4998467;28;20505;-81
2024/01/13 06:51:22;;;;;;;2.15;0.80;;;;;;;;;;5001537;28;20069;-82
2024/01/13 06:53:48;;;;;;;2.28;0.88;;;;;;;;;;4997336;28;20053;-82
2024/01/13 06:56:14;;;;;;;2.72;1.48;;;;;;;;;;5009817;28;20046;-83
2024/01/13 06:58:40;;;;;;;2.40;1.20;;;;;;;;;;5005130;28;20042;-83
2024/01/13 07:01:06;;;;;;;0.40;0.40;;;;;;;;;;5007396;28;20069;-84
2024/01/13 07:03:33;;;;;;;2.58;1.33;;;;;;;;;;4997871;28;20564;-83
2024/01/13 07:06:00;;;;;;;0.95;0.63;;;;;;;;;;4993184;28;20065;-83
2024/01/13 07:08:26;;;;;;;2.28;0.77;;;;;;;;;;5003524;28;20053;-82
2024/01/13 07:10:54;;;;;;;1.33;0.88;;;;;;;;;;5004534;28;20042;-83
2024/01/13 07:13:20;;;;;;;1.33;1.00;;;;;;;;;;5009257;28;20050;-83
2024/01/13 07:15:46;;;;;;;1.60;1.17;;;;;;;;;;5004794;28;20038;-82
2024/01/13 07:18:12;;;;;;;3.92;2.17;;;;;;;;;;5002271;28;20045;-82
2024/01/13 07:20:38;;;;;;;0.73;0.50;;;;;;;;;;5002062;28;20038;-82
2024/01/13 07:23:04;;;;;;;2.13;1.17;;;;;;;;;;4970085;28;20414;-81
2024/01/13 07:25:30;;;;;;;0.40;0.40;;;;;;;;;;4969907;28;20513;-83
2024/01/13 07:27:56;;;;;;;0.75;0.43;;;;;;;;;;4989473;28;20042;-83
2024/01/13 07:30:22;;;;;;;1.73;1.15;;;;;;;;;;4953499;28;20045;-82
2024/01/13 07:32:48;;;;;;;0.63;0.38;;;;;;;;;;4989230;28;20039;-82
2024/01/13 07:35:14;;;;;;;2.67;1.00;;;;;;;;;;4983832;28;20410;-82
2024/01/13 07:37:40;;;;;;;1.10;0.60;;;;;;;;;;4964266;28;20054;-82
2024/01/13 07:40:07;;;;;;;1.05;0.73;;;;;;;;;;4967325;28;20065;-82
2024/01/13 07:42:33;;;;;;;1.65;1.00;;;;;;;;;;4982099;28;20026;-81
2024/01/13 07:44:59;;;;;;;1.40;1.20;;;;;;;;;;4983222;28;20051;-82
2024/01/13 07:47:25;;;;;;;0.70;0.40;;;;;;;;;;4960031;28;20047;-84
2024/01/13 07:49:51;;;;;;;1.45;0.70;;;;;;;;;;4983710;28;20508;-83
2024/01/13 07:52:17;;;;;;;2.17;1.02;;;;;;;;;;4990654;28;20038;-83
2024/01/13 07:54:43;;;;;;;1.55;0.30;;;;;;;;;;4984403;28;20038;-83
2024/01/13 07:57:09;;;;;;;1.30;0.52;;;;;;;;;;4988311;28;20066;-82
2024/01/13 07:59:35;;;;;;;1.15;0.90;;;;;;;;;;4975196;28;20083;-83
2024/01/13 08:02:01;;;;;;;1.35;1.00;;;;;;;;;;4986184;28;20182;-85
2024/01/13 08:04:27;;;;;;;1.35;0.80;;;;;;;;;;4966741;28;20046;-85
2024/01/13 08:06:53;;;;;;;1.48;0.70;;;;;;;;;;4982179;28;20066;-87
2024/01/13 08:09:19;;;;;;;0.73;0.70;;;;;;;;;;4966657;28;20039;-86
2024/01/13 08:11:45;;;;;;;0.77;0.60;;;;;;;;;;4952972;28;20046;-86
2024/01/13 08:14:11;;;;;;;1.42;0.70;;;;;;;;;;4968341;28;20397;-86
2024/01/13 08:16:37;;;;;;;0.63;0.47;;;;;;;;;;4945836;28;20116;-85
2024/01/13 08:19:03;;;;;;;0.47;0.47;;;;;;;;;;4964000;28;20121;-85
2024/01/13 08:21:29;;;;;;;1.48;1.10;;;;;;;;;;4980582;28;20497;-84
2024/01/13 08:23:55;;;;;;;1.25;0.77;;;;;;;;;;4983502;28;20049;-86
2024/01/13 08:26:21;;;;;;;0.82;0.63;;;;;;;;;;4999079;28;20049;-83
2024/01/13 08:28:47;;;;;;;1.98;1.10;;;;;;;;;;5001170;28;20042;-84
2024/01/13 08:31:13;;;;;;;0.80;0.57;;;;;;;;;;5005778;28;20095;-86
2024/01/13 08:33:39;;;;;;;0.93;0.70;;;;;;;;;;4979540;28;20125;-86
2024/01/13 08:36:05;;;;;;;2.03;1.23;;;;;;;;;;4977269;28;20077;-87
2024/01/13 08:38:31;;;;;;;2.38;0.90;;;;;;;;;;4986334;28;20115;-88
2024/01/13 08:40:57;;;;;;;4.70;2.78;;;;;;;;;;4990096;28;20038;-87
2024/01/13 08:43:23;;;;;;;2.92;1.77;;;;;;;;;;5002530;28;20576;-88
2024/01/13 08:45:49;;;;;;;2.30;1.75;;;;;;;;;;4975608;28;20097;-86
2024/01/13 08:48:15;;;;;;;4.43;2.22;;;;;;;;;;4984125;28;20120;-88
2024/01/13 08:50:42;;;;;;;5.85;3.80;;;;;;;;;;4983283;28;20038;-86
2024/01/13 08:53:08;;;;;;;3.25;2.38;;;;;;;;;;5000828;28;20169;-88
2024/01/13 08:55:34;;;;;;;3.88;2.63;;;;;;;;;;4997333;28;20080;-86
2024/01/13 08:58:00;;;;;;;6.85;2.75;;;;;;;;;;4998478;28;20367;-88
2024/01/13 09:00:27;;;;;;;8.02;4.07;;;;;;;;;;4994886;28;20049;-88
2024/01/13 09:02:54;;;;;;;10.95;3.60;;;;;;;;;;5001860;28;20038;-89
2024/01/13 09:05:20;;;;;;;5.30;2.75;;;;;;;;;;4981886;28;20053;-88
2024/01/13 09:07:46;;;;;;;6.68;4.10;;;;;;;;;;4996284;28;20129;-89
2024/01/13 09:10:12;;;;;;;5.43;3.58;;;;;;;;;;5002749;28;20042;-89
2024/01/13 09:12:38;;;;;;;4.70;3.70;;;;;;;;;;4984360;28;20038;-89
2024/01/13 09:15:06;;;;;;;7.32;4.05;;;;;;;;;;4976994;28;20043;-87
2024/01/13 09:17:32;;;;;;;29.63;10.68;;;;;;;;;;4973390;28;20042;-89
2024/01/13 09:19:58;;;;;;;7.85;3.00;;;;;;;;;;4980368;28;20042;-88
2024/01/13 09:22:24;;;;;;;12.43;5.65;;;;;;;;;;4994370;28;20101;-89
2024/01/13 09:24:50;;;;;;;17.35;7.13;;;;;;;;;;4996231;28;20129;-89
2024/01/13 09:27:17;;;;;;;15.80;6.43;;;;;;;;;;5000107;28;20077;-90
2024/01/13 09:29:45;;;;;;;29.50;12.18;;;;;;;;;;4979733;28;20038;-89
2024/01/13 09:32:11;;;;;;;15.38;7.38;;;;;;;;;;4982159;28;20034;-89
2024/01/13 09:34:37;;;;;;;14.57;7.38;;;;;;;;;;4983220;28;20034;-86
2024/01/13 09:37:03;;;;;;;34.88;15.35;;;;;;;;;;4999852;28;20501;-90
2024/01/13 09:39:30;;;;;;;16.85;7.68;;;;;;;;;;4982728;28;20065;-89
2024/01/13 09:41:58;;;;;;;15.32;8.60;;;;;;;;;;4980829;28;20474;-87
2024/01/13 09:44:28;;;;;;;28.13;12.82;;;;;;;;;;4998564;28;20405;-86
2024/01/13 09:46:55;;;;;;;18.17;9.43;;;;;;;;;;4982489;28;20034;-86
2024/01/13 09:49:21;;;;;;;20.67;9.52;;;;;;;;;;4985728;28;20127;-85
2024/01/13 09:51:47;;;;;;;18.80;9.95;;;;;;;;;;4996121;28;20489;-87
2024/01/13 09:54:32;;;;;;;32.63;14.07;;;;;;;;;;5000320;28;20038;-85
2024/01/13 09:56:58;;;;;;;24.50;10.13;;;;;;;;;;4981251;28;20042;-87
2024/01/13 09:59:31;;;;;;;28.83;13.90;;;;;;;;;;4985079;28;20041;-85
2024/01/13 10:01:57;;;;;;;47.03;20.98;;;;;;;;;;4977943;28;20070;-85
2024/01/13 10:04:23;;;;;;;23.52;10.65;;;;;;;;;;4979901;28;20041;-86
2024/01/13 10:06:49;;;;;;;14.10;7.78;;;;;;;;;;4981672;28;20088;-86
2024/01/13 10:09:15;;;;;;;29.33;14.27;;;;;;;;;;4979797;28;20121;-87
2024/01/13 10:11:42;;;;;;;30.52;11.75;;;;;;;;;;4995753;28;20041;-86
2024/01/13 10:14:12;;;;;;;14.25;6.55;;;;;;;;;;4995326;28;20084;-86
2024/01/13 10:16:38;;;;;;;23.00;10.43;;;;;;;;;;4994585;28;20085;-87
2024/01/13 10:19:05;;;;;;;39.05;16.65;;;;;;;;;;4983071;28;20085;-88
2024/01/13 10:21:31;;;;;;;23.85;10.95;;;;;;;;;;4995086;28;20049;-88
2024/01/13 10:23:59;;;;;;;28.60;15.88;;;;;;;;;;4981319;28;20053;-89
2024/01/13 10:26:25;;;;;;;36.63;19.30;;;;;;;;;;4984910;28;20038;-87
2024/01/13 10:28:52;;;;;;;35.58;16.42;;;;;;;;;;4984384;28;20041;-88
2024/01/13 10:31:18;;;;;;;21.52;10.23;;;;;;;;;;4977576;28;20038;-88
2024/01/13 10:33:47;;;;;;;16.85;8.75;;;;;;;;;;4994644;28;20038;-88
2024/01/13 10:36:13;;;;;;;28.15;12.30;;;;;;;;;;4974081;28;20049;-88
2024/01/13 10:38:42;;;;;;;16.73;10.38;;;;;;;;;;4981367;28;20034;-87
2024/01/13 10:41:09;;;;;;;16.52;10.65;;;;;;;;;;5000018;28;20034;-87
2024/01/13 10:43:38;;;;;;;24.48;13.13;;;;;;;;;;4989942;28;20065;-87
2024/01/13 10:46:06;;;;;;;31.45;15.52;;;;;;;;;;4987750;28;20038;-88
2024/01/13 10:48:46;;;;;;;20.95;12.88;;;;;;;;;;4984350;28;20129;-86
2024/01/13 10:51:32;;;;;;;23.75;10.88;;;;;;;;;;4979108;28;20504;-88
2024/01/13 10:54:02;;;;;;;24.45;11.82;;;;;;;;;;4997374;28;20038;-89
2024/01/13 10:56:29;;;;;;;21.05;11.73;;;;;;;;;;5000170;28;20042;-88
2024/01/13 10:58:56;;;;;;;33.20;14.32;;;;;;;;;;4985411;28;20084;-88
2024/01/13 11:01:23;;;;;;;28.33;15.77;;;;;;;;;;4998022;28;20126;-87
2024/01/13 11:03:50;;;;;;;9.90;7.72;;;;;;;;;;4990270;28;20041;-87
2024/01/13 11:06:16;;;;;;;33.45;16.23;;;;;;;;;;4978320;28;20409;-86
2024/01/13 11:08:43;;;;;;;18.30;11.05;;;;;;;;;;4992962;28;20034;-89
2024/01/13 11:11:11;;;;;;;16.92;8.90;;;;;;;;;;4997304;28;20121;-88
2024/01/13 11:13:44;;;;;;;22.05;10.10;;;;;;;;;;4982472;28;20130;-88
2024/01/13 11:16:13;;;;;;;22.60;11.88;;;;;;;;;;5004547;28;20041;-88
2024/01/13 11:18:46;;;;;;;39.70;17.85;;;;;;;;;;4983244;28;20042;-87
2024/01/13 11:21:12;;;;;;;17.65;11.27;;;;;;;;;;4996018;28;20424;-87
2024/01/13 11:23:44;;;;;;;30.52;13.85;;;;;;;;;;5004154;28;20505;-86
2024/01/13 11:26:11;;;;;;;34.45;14.82;;;;;;;;;;4984533;28;20057;-87
2024/01/13 11:28:57;;;;;;;20.13;9.68;;;;;;;;;;4999885;28;20038;-84
2024/01/13 11:31:32;;;;;;;15.65;9.18;;;;;;;;;;4998346;28;20041;-87
2024/01/13 11:34:00;;;;;;;20.38;11.60;;;;;;;;;;5002228;28;20048;-86
2024/01/13 11:36:29;;;;;;;29.50;14.52;;;;;;;;;;4994940;28;20049;-90
2024/01/13 11:39:00;;;;;;;20.30;10.10;;;;;;;;;;5002870;28;20090;-86
2024/01/13 11:41:44;;;;;;;16.60;9.00;;;;;;;;;;4982480;28;20038;-88
2024/01/13 11:44:11;;;;;;;13.73;8.18;;;;;;;;;;5001956;28;20125;-90
2024/01/13 11:46:38;;;;;;;37.13;17.30;;;;;;;;;;5001594;28;20081;-93
2024/01/13 11:49:05;;;;;;;37.58;16.30;;;;;;;;;;4983248;28;20105;-87
2024/01/13 11:51:49;;;;;;;20.88;10.95;;;;;;;;;;4982212;28;20041;-89
2024/01/13 11:54:17;;;;;;;39.72;19.02;;;;;;;;;;4982263;28;20042;-90
2024/01/13 11:56:45;;;;;;;23.83;13.07;;;;;;;;;;4983453;28;20462;-88
2024/01/13 11:59:11;;;;;;;20.10;13.95;;;;;;;;;;5000863;28;20045;-90
2024/01/13 12:01:37;;;;;;;47.95;20.38;;;;;;;;;;4985533;28;20038;-86
2024/01/13 12:04:03;;;;;;;20.63;9.57;;;;;;;;;;4996151;28;20119;-88
2024/01/13 12:06:29;;;;;;;34.42;15.45;;;;;;;;;;4977247;28;20121;-87
2024/01/13 12:08:56;;;;;;;27.63;13.35;;;;;;;;;;4996199;28;20049;-87
2024/01/13 12:11:22;;;;;;;25.30;11.05;;;;;;;;;;5001986;28;20045;-88
2024/01/13 12:13:48;;;;;;;24.65;12.40;;;;;;;;;;4981407;28;20692;-88
2024/01/13 12:16:14;;;;;;;27.08;11.82;;;;;;;;;;4984291;28;20157;-88
2024/01/13 12:18:40;;;;;;;16.50;9.35;;;;;;;;;;5002168;28;20045;-88
2024/01/13 12:21:06;;;;;;;33.13;15.27;;;;;;;;;;4983832;28;20047;-88
2024/01/13 12:23:32;;;;;;;8.23;5.30;;;;;;;;;;4992420;28;20094;-89
2024/01/13 12:25:58;;;;;;;18.83;8.93;;;;;;;;;;4980206;28;20093;-89
2024/01/13 12:28:24;;;;;;;18.98;9.60;;;;;;;;;;5002871;28;20124;-90
2024/01/13 12:30:53;;;;;;;3.45;2.83;;;;;;;;;;4997968;28;20035;-89
2024/01/13 12:33:19;;;;;;;14.90;7.90;;;;;;;;;;4996702;28;20124;-88
2024/01/13 12:35:46;;;;;;;12.18;6.85;;;;;;;;;;4999443;28;20046;-89
2024/01/13 12:38:13;;;;;;;30.00;13.30;;;;;;;;;;4986799;28;20048;-89
2024/01/13 12:40:39;;;;;;;22.58;10.60;;;;;;;;;;4998264;28;20034;-88
2024/01/13 12:43:05;;;;;;;32.45;16.50;;;;;;;;;;4979991;28;20484;-89
2024/01/13 12:45:32;;;;;;;23.45;9.35;;;;;;;;;;4986154;28;20044;-88
2024/01/13 12:47:58;;;;;;;30.20;11.45;;;;;;;;;;4989585;28;20057;-90
2024/01/13 12:50:24;;;;;;;25.00;12.30;;;;;;;;;;4978583;28;20046;-89
2024/01/13 12:52:50;;;;;;;42.03;18.08;;;;;;;;;;4977730;28;20042;-91
2024/01/13 12:55:16;;;;;;;15.65;7.78;;;;;;;;;;4979260;28;20106;-90
2024/01/13 12:57:43;;;;;;;27.55;12.25;;;;;;;;;;4995222;28;20122;-89
2024/01/13 13:00:09;;;;;;;17.50;10.35;;;;;;;;;;4980447;28;20033;-88
2024/01/13 13:02:35;;;;;;;23.33;10.80;;;;;;;;;;4982854;28;20034;-87
2024/01/13 13:05:04;;;;;;;9.80;6.43;;;;;;;;;;5008821;28;20047;-90
2024/01/13 13:07:31;;;;;;;12.07;6.80;;;;;;;;;;4993060;28;20046;-92
2024/01/13 13:09:58;;;;;;;25.75;14.55;;;;;;;;;;4993381;28;20070;-88
2024/01/13 13:12:24;;;;;;;11.02;7.15;;;;;;;;;;4983286;28;20110;-89
2024/01/13 13:14:51;;;;;;;20.80;10.63;;;;;;;;;;4989724;28;20036;-89
2024/01/13 13:17:17;;;;;;;20.33;10.00;;;;;;;;;;4998828;28;20489;-89
2024/01/13 13:19:43;;;;;;;10.82;6.55;;;;;;;;;;4996374;28;20069;-88
2024/01/13 13:22:09;;;;;;;15.55;7.93;;;;;;;;;;4980510;28;20050;-88
2024/01/13 13:24:36;;;;;;;23.17;11.45;;;;;;;;;;5001566;28;20038;-90
2024/01/13 13:27:03;;;;;;;27.00;11.75;;;;;;;;;;4984641;28;20382;-88
2024/01/13 13:29:30;;;;;;;18.58;8.68;;;;;;;;;;4996835;28;20046;-89
2024/01/13 13:31:56;;;;;;;10.73;6.47;;;;;;;;;;4999379;28;20034;-88
2024/01/13 13:34:25;;;;;;;26.45;13.55;;;;;;;;;;4999614;28;20074;-90
2024/01/13 13:36:51;;;;;;;10.48;6.35;;;;;;;;;;4996872;28;20034;-89
2024/01/13 13:39:17;;;;;;;20.02;10.43;;;;;;;;;;4983293;28;20041;-89
2024/01/13 13:41:43;;;;;;;9.85;5.22;;;;;;;;;;4992386;28;20437;-88
2024/01/13 13:44:09;;;;;;;8.05;4.72;;;;;;;;;;4978632;28;20043;-88
2024/01/13 13:46:36;;;;;;;6.90;4.90;;;;;;;;;;4999461;28;20456;-89
2024/01/13 13:49:02;;;;;;;16.65;8.60;;;;;;;;;;4997086;28;20073;-88
2024/01/13 13:51:29;;;;;;;16.95;8.60;;;;;;;;;;4999367;28;20449;-88
2024/01/13 13:53:56;;;;;;;14.23;7.30;;;;;;;;;;4998656;28;20551;-88
2024/01/13 13:56:22;;;;;;;14.07;7.60;;;;;;;;;;4982219;28;20520;-88
2024/01/13 13:58:48;;;;;;;16.02;8.43;;;;;;;;;;4979436;28;20038;-88
2024/01/13 14:01:14;;;;;;;17.83;8.95;;;;;;;;;;4996862;28;20069;-88
2024/01/13 14:03:40;;;;;;;13.80;7.15;;;;;;;;;;4981252;28;20414;-88
2024/01/13 14:06:07;;;;;;;4.55;3.15;;;;;;;;;;4979487;28;20038;-88
2024/01/13 14:08:33;;;;;;;10.38;5.18;;;;;;;;;;4998755;28;20537;-89
2024/01/13 14:10:59;;;;;;;17.80;6.45;;;;;;;;;;4983379;28;20105;-88
2024/01/13 14:13:25;;;;;;;8.73;5.95;;;;;;;;;;4977530;28;20043;-88
2024/01/13 14:15:51;;;;;;;18.52;8.80;;;;;;;;;;4981229;28;20034;-88
2024/01/13 14:18:17;;;;;;;8.02;4.65;;;;;;;;;;4994488;28;20042;-88
2024/01/13 14:20:43;;;;;;;8.23;4.07;;;;;;;;;;4996880;28;20053;-90
2024/01/13 14:23:09;;;;;;;8.93;4.55;;;;;;;;;;4965878;28;20046;-89
2024/01/13 14:25:35;;;;;;;10.32;5.38;;;;;;;;;;4962920;28;20373;-88
2024/01/13 14:28:05;;;;;;;11.88;6.22;;;;;;;;;;4979334;28;20489;-89
2024/01/13 14:30:31;;;;;;;14.65;6.95;;;;;;;;;;4982470;28;20545;-88
2024/01/13 14:32:57;;;;;;;10.52;4.88;;;;;;;;;;4978385;28;20097;-88
2024/01/13 14:35:23;;;;;;;10.05;5.60;;;;;;;;;;4968501;28;20037;-88
2024/01/13 14:37:49;;;;;;;4.45;3.35;;;;;;;;;;4964706;28;20038;-89
2024/01/13 14:40:15;;;;;;;8.90;4.03;;;;;;;;;;4967551;28;20121;-89
2024/01/13 14:42:42;;;;;;;4.30;2.22;;;;;;;;;;4963680;28;20041;-89
2024/01/13 14:45:08;;;;;;;8.57;4.82;;;;;;;;;;4966867;28;20042;-88
2024/01/13 14:47:34;;;;;;;5.40;3.25;;;;;;;;;;4982231;28;20042;-88
2024/01/13 14:50:02;;;;;;;11.57;5.32;;;;;;;;;;4969303;28;20420;-89
2024/01/13 14:52:29;;;;;;;7.50;4.13;;;;;;;;;;4967005;28;20555;-88
2024/01/13 14:54:57;;;;;;;7.18;3.88;;;;;;;;;;4984211;28;20038;-88
2024/01/13 14:57:23;;;;;;;11.65;5.20;;;;;;;;;;4972407;28;20038;-89
2024/01/13 14:59:50;;;;;;;6.25;4.45;;;;;;;;;;4958112;28;20037;-88
2024/01/13 15:02:18;;;;;;;14.77;6.38;;;;;;;;;;4967824;28;20083;-89
2024/01/13 15:04:44;;;;;;;15.63;4.97;;;;;;;;;;4985234;28;20034;-89
2024/01/13 15:07:10;;;;;;;13.35;6.82;;;;;;;;;;4968681;28;20027;-90
2024/01/13 15:09:37;;;;;;;4.85;2.67;;;;;;;;;;4969896;28;20039;-89
2024/01/13 15:12:03;;;;;;;5.60;3.63;;;;;;;;;;4985114;28;20033;-90
2024/01/13 15:14:29;;;;;;;8.77;4.88;;;;;;;;;;4967341;28;20049;-89
2024/01/13 15:16:55;;;;;;;13.15;5.80;;;;;;;;;;4980872;28;20038;-87
2024/01/13 15:19:21;;;;;;;5.93;2.53;;;;;;;;;;4988746;28;20033;-88
2024/01/13 15:21:48;;;;;;;3.17;1.88;;;;;;;;;;4990572;28;20078;-88
2024/01/13 15:24:14;;;;;;;6.38;2.92;;;;;;;;;;5000772;28;20050;-89
2024/01/13 15:26:40;;;;;;;6.30;3.03;;;;;;;;;;4985569;28;20046;-89
2024/01/13 15:29:06;;;;;;;8.40;4.43;;;;;;;;;;4986807;28;20100;-88
2024/01/13 15:31:33;;;;;;;3.97;3.33;;;;;;;;;;4986234;28;20105;-89
2024/01/13 15:33:59;;;;;;;8.45;3.17;;;;;;;;;;5006043;28;20065;-88
2024/01/13 15:36:26;;;;;;;5.78;3.05;;;;;;;;;;4986130;28;20125;-88
2024/01/13 15:38:52;;;;;;;5.88;3.40;;;;;;;;;;4986833;28;20433;-88
2024/01/13 15:41:18;;;;;;;3.95;2.22;;;;;;;;;;4983790;28;20046;-89
2024/01/13 15:43:44;;;;;;;1.55;1.42;;;;;;;;;;5002947;28;20121;-90
2024/01/13 15:46:10;;;;;;;6.25;2.67;;;;;;;;;;4986108;28;20125;-89
2024/01/13 15:48:36;;;;;;;6.95;3.33;;;;;;;;;;4983491;28;20030;-89
2024/01/13 15:51:02;;;;;;;2.70;1.65;;;;;;;;;;4981927;28;20069;-88
2024/01/13 15:53:28;;;;;;;3.47;2.25;;;;;;;;;;5000653;28;20062;-89